createdAt,value
2022-12-13T00:01:47.615Z,-7.40
2022-12-13T00:04:15.101Z,-7.40
2022-12-13T00:06:42.919Z,-7.40
2022-12-13T00:09:13.936Z,-7.40
2022-12-13T00:11:41.328Z,-7.40
2022-12-13T00:14:08.711Z,-7.40
2022-12-13T00:16:36.034Z,-7.40
2022-12-13T00:19:03.486Z,-7.40
2022-12-13T00:21:32.541Z,-7.40
2022-12-13T00:24:01.075Z,-7.40
2022-12-13T00:26:32.927Z,-7.40
2022-12-13T00:29:02.127Z,-7.50
2022-12-13T00:34:19.939Z,-7.60
2022-12-13T00:36:48.127Z,-7.60
2022-12-13T00:39:19.381Z,-7.70
2022-12-13T00:41:49.538Z,-7.70
2022-12-13T00:44:16.989Z,-7.80
2022-12-13T00:46:44.345Z,-7.80
2022-12-13T00:49:13.013Z,-7.80
2022-12-13T00:51:41.683Z,-7.70
2022-12-13T00:54:10.106Z,-7.80
2022-12-13T00:56:38.419Z,-7.80
2022-12-13T00:59:05.715Z,-7.90
2022-12-13T01:01:36.659Z,-7.90
2022-12-13T01:04:05.679Z,-7.90
2022-12-13T01:06:44.948Z,-8.00
2022-12-13T01:09:19.712Z,-8.00
2022-12-13T01:11:50.208Z,-7.90
2022-12-13T01:14:18.574Z,-7.90
2022-12-13T01:16:47.373Z,-8.00
2022-12-13T01:19:14.736Z,-8.00
2022-12-13T01:21:42.090Z,-8.00
2022-12-13T01:24:11.375Z,-8.10
2022-12-13T01:26:38.733Z,-8.10
2022-12-13T01:29:06.085Z,-7.00
2022-12-13T01:31:33.923Z,-8.20
2022-12-13T01:34:13.380Z,-8.30
2022-12-13T01:36:42.556Z,-8.20
2022-12-13T01:39:15.223Z,-8.10
2022-12-13T01:41:59.452Z,-7.80
2022-12-13T01:44:52.161Z,-8.20
2022-12-13T01:47:25.409Z,-8.20
2022-12-13T01:49:56.000Z,-8.20
2022-12-13T01:52:30.043Z,-8.20
2022-12-13T01:55:15.604Z,-8.10
2022-12-13T01:57:45.992Z,-8.20
2022-12-13T02:00:15.235Z,-8.20
2022-12-13T02:02:46.260Z,-8.20
2022-12-13T02:05:40.101Z,-8.20
2022-12-13T02:08:10.553Z,-8.20
2022-12-13T02:10:38.928Z,-8.20
2022-12-13T02:13:06.201Z,-8.20
2022-12-13T02:16:11.946Z,-8.20
2022-12-13T02:18:53.525Z,-8.20
2022-12-13T02:21:33.557Z,-8.10
2022-12-13T02:24:37.917Z,-8.10
2022-12-13T02:27:42.828Z,-8.00
2022-12-13T02:30:22.958Z,-8.00
2022-12-13T02:33:21.692Z,-8.00
2022-12-13T02:36:08.369Z,-8.00
2022-12-13T02:38:58.355Z,-8.00
2022-12-13T02:41:44.109Z,-7.70
2022-12-13T02:44:22.437Z,-7.90
2022-12-13T02:47:12.686Z,-7.90
2022-12-13T02:49:48.470Z,-7.90
2022-12-13T02:52:22.403Z,-7.70
2022-12-13T02:54:50.030Z,-7.90
2022-12-13T02:57:28.527Z,-7.90
2022-12-13T03:00:00.351Z,-7.90
2022-12-13T03:02:49.342Z,-7.90
2022-12-13T03:06:06.232Z,-7.90
2022-12-13T03:08:48.334Z,-7.90
2022-12-13T03:11:18.371Z,-7.90
2022-12-13T03:13:54.899Z,-7.90
2022-12-13T03:16:32.549Z,-8.00
2022-12-13T03:19:02.667Z,-8.00
2022-12-13T03:21:30.672Z,-7.90
2022-12-13T03:23:57.902Z,-8.00
2022-12-13T03:26:27.386Z,-8.00
2022-12-13T03:28:55.070Z,-8.00
2022-12-13T03:31:22.824Z,-8.00
2022-12-13T03:33:50.166Z,-8.00
2022-12-13T03:36:20.159Z,-8.00
2022-12-13T03:38:52.331Z,-8.00
2022-12-13T03:41:24.015Z,-8.00
2022-12-13T03:43:53.698Z,-8.00
2022-12-13T03:46:21.062Z,-8.10
2022-12-13T03:48:48.393Z,-8.10
2022-12-13T03:51:15.657Z,-8.10
2022-12-13T03:53:44.459Z,-8.20
2022-12-13T03:56:11.798Z,-8.20
2022-12-13T03:58:42.067Z,-8.30
2022-12-13T04:01:13.405Z,-8.30
2022-12-13T04:03:43.106Z,-8.30
2022-12-13T04:06:11.492Z,-8.40
2022-12-13T04:08:39.653Z,-8.40
2022-12-13T04:11:26.425Z,-8.40
2022-12-13T04:13:54.310Z,-8.40
2022-12-13T04:16:22.709Z,-8.50
2022-12-13T04:18:50.046Z,-8.50
2022-12-13T04:21:17.245Z,-8.60
2022-12-13T04:23:44.555Z,-8.60
2022-12-13T04:26:11.941Z,-8.60
2022-12-13T04:28:39.367Z,-8.60
2022-12-13T04:31:06.880Z,-8.70
2022-12-13T04:33:34.409Z,-8.70
2022-12-13T04:36:05.239Z,-8.70
2022-12-13T04:38:32.567Z,-8.70
2022-12-13T04:41:07.722Z,-8.70
2022-12-13T04:43:35.014Z,-8.70
2022-12-13T04:46:02.288Z,-8.70
2022-12-13T04:48:30.421Z,-8.70
2022-12-13T04:51:01.332Z,-8.70
2022-12-13T04:53:29.747Z,-8.70
2022-12-13T04:55:57.148Z,-8.60
2022-12-13T04:58:24.790Z,-8.60
2022-12-13T05:00:52.352Z,-8.60
2022-12-13T05:03:19.603Z,-8.60
2022-12-13T05:05:52.306Z,-8.50
2022-12-13T05:08:19.888Z,-8.60
2022-12-13T05:10:47.241Z,-8.40
2022-12-13T05:13:14.487Z,-8.60
2022-12-13T05:15:41.779Z,-8.60
2022-12-13T05:18:11.126Z,-8.70
2022-12-13T05:20:39.710Z,-8.70
2022-12-13T05:23:07.278Z,-8.70
2022-12-13T05:25:36.923Z,-8.80
2022-12-13T05:28:27.244Z,-8.80
2022-12-13T05:30:53.882Z,-8.70
2022-12-13T05:33:23.038Z,-8.70
2022-12-13T05:35:52.948Z,-8.00
2022-12-13T05:38:23.598Z,-8.70
2022-12-13T05:40:50.875Z,-8.70
2022-12-13T05:43:21.864Z,-8.80
2022-12-13T05:45:50.916Z,-8.80
2022-12-13T05:48:24.422Z,-8.80
2022-12-13T05:51:10.701Z,-8.90
2022-12-13T05:53:42.633Z,-8.80
2022-12-13T05:56:11.509Z,-8.80
2022-12-13T05:58:42.382Z,-8.80
2022-12-13T06:01:12.211Z,-8.80
2022-12-13T06:03:40.368Z,-8.80
2022-12-13T06:06:09.295Z,-8.80
2022-12-13T06:08:37.320Z,-8.80
2022-12-13T06:11:10.293Z,-8.80
2022-12-13T06:13:43.961Z,-8.80
2022-12-13T06:16:23.525Z,-8.80
2022-12-13T06:19:01.286Z,-8.80
2022-12-13T06:21:41.246Z,-8.80
2022-12-13T06:24:11.147Z,-8.90
2022-12-13T06:26:38.484Z,-8.90
2022-12-13T06:29:05.870Z,-8.90
2022-12-13T06:31:33.232Z,-8.90
2022-12-13T06:34:14.731Z,-8.90
2022-12-13T06:36:43.281Z,-8.80
2022-12-13T06:39:10.507Z,-8.80
2022-12-13T06:41:37.897Z,-8.80
2022-12-13T06:44:05.530Z,-8.80
2022-12-13T06:46:33.237Z,-8.80
2022-12-13T06:49:03.722Z,-8.80
2022-12-13T06:51:33.949Z,-8.80
2022-12-13T06:54:04.586Z,-8.80
2022-12-13T06:56:32.743Z,-8.90
2022-12-13T06:59:01.466Z,-8.80
2022-12-13T07:01:36.999Z,-8.80
2022-12-13T07:04:29.362Z,-8.90
2022-12-13T07:07:01.174Z,-8.90
2022-12-13T07:09:33.293Z,-8.80
2022-12-13T07:12:00.943Z,-8.80
2022-12-13T07:14:28.515Z,-8.80
2022-12-13T07:17:03.223Z,-8.80
2022-12-13T07:19:35.413Z,-8.80
2022-12-13T07:22:06.157Z,-8.70
2022-12-13T07:24:34.818Z,-8.70
2022-12-13T07:27:03.451Z,-8.70
2022-12-13T07:29:31.075Z,-8.70
2022-12-13T07:32:01.161Z,-8.70
2022-12-13T07:34:30.365Z,-8.70
2022-12-13T07:36:57.959Z,-8.70
2022-12-13T07:39:26.422Z,-8.60
2022-12-13T07:41:55.926Z,-8.60
2022-12-13T07:44:24.648Z,-8.60
2022-12-13T07:46:52.040Z,-8.50
2022-12-13T07:49:19.407Z,-8.50
2022-12-13T07:51:48.069Z,-8.40
2022-12-13T07:54:15.398Z,-8.40
2022-12-13T07:56:42.671Z,-8.40
2022-12-13T07:59:11.280Z,-8.30
2022-12-13T08:01:38.817Z,-8.20
2022-12-13T08:04:06.456Z,-8.20
2022-12-13T08:06:38.120Z,-8.10
2022-12-13T08:09:06.392Z,-8.10
2022-12-13T08:11:33.801Z,-8.00
2022-12-13T08:14:01.277Z,-8.00
2022-12-13T08:16:30.296Z,-7.90
2022-12-13T08:19:02.726Z,-7.90
2022-12-13T08:21:56.724Z,-7.80
2022-12-13T08:24:26.559Z,-7.70
2022-12-13T08:26:55.423Z,-7.70
2022-12-13T08:29:33.941Z,-7.50
2022-12-13T08:32:11.016Z,-7.60
2022-12-13T08:34:39.375Z,-7.50
2022-12-13T08:37:06.738Z,-7.50
2022-12-13T08:39:36.463Z,-7.40
2022-12-13T08:42:14.718Z,-7.40
2022-12-13T08:44:46.716Z,-7.40
2022-12-13T08:47:22.925Z,-7.30
2022-12-13T08:50:02.318Z,-7.30
2022-12-13T08:52:39.242Z,-7.20
2022-12-13T08:55:10.394Z,-7.20
2022-12-13T08:57:38.777Z,-7.00
2022-12-13T09:00:07.111Z,-6.90
2022-12-13T09:02:38.217Z,-6.90
2022-12-13T09:05:07.476Z,-6.90
2022-12-13T09:07:36.100Z,-6.80
2022-12-13T09:10:07.332Z,-6.70
2022-12-13T09:13:01.300Z,-6.60
2022-12-13T09:15:34.212Z,-6.50
2022-12-13T09:18:04.252Z,-6.40
2022-12-13T09:20:41.481Z,-6.40
2022-12-13T09:23:14.027Z,-6.30
2022-12-13T09:26:05.491Z,-6.20
2022-12-13T09:28:37.216Z,-6.20
2022-12-13T09:31:13.528Z,-6.20
2022-12-13T09:33:42.010Z,-6.10
2022-12-13T09:36:18.152Z,-6.00
2022-12-13T09:38:46.286Z,-5.90
2022-12-13T09:41:28.578Z,-5.90
2022-12-13T09:44:32.784Z,-5.90
2022-12-13T09:47:04.258Z,-5.90
2022-12-13T09:49:52.031Z,-5.90
2022-12-13T09:52:25.055Z,-5.90
2022-12-13T09:54:55.592Z,-5.80
2022-12-13T09:57:34.670Z,-5.80
2022-12-13T10:00:06.982Z,-5.70
2022-12-13T10:02:50.401Z,-5.80
2022-12-13T10:05:43.849Z,-5.70
2022-12-13T10:08:16.738Z,-5.70
2022-12-13T10:10:44.300Z,-5.80
2022-12-13T10:13:19.716Z,-5.60
2022-12-13T10:16:03.840Z,-5.70
2022-12-13T10:18:37.652Z,-5.60
2022-12-13T10:21:26.833Z,-5.50
2022-12-13T10:24:25.837Z,-5.40
2022-12-13T10:26:51.672Z,-5.30
2022-12-13T10:29:19.668Z,-5.20
2022-12-13T10:31:49.080Z,-5.20
2022-12-13T10:34:35.500Z,-5.10
2022-12-13T10:37:26.017Z,-5.10
2022-12-13T10:39:53.180Z,-5.00
2022-12-13T10:42:23.586Z,-4.90
2022-12-13T10:45:23.969Z,-4.90
2022-12-13T10:47:52.070Z,-4.90
2022-12-13T10:50:28.494Z,-4.90
2022-12-13T10:52:57.649Z,-4.80
2022-12-13T10:55:37.835Z,-4.70
2022-12-13T10:58:18.030Z,-4.60
2022-12-13T11:00:47.357Z,-4.60
2022-12-13T11:03:30.900Z,-4.60
2022-12-13T11:06:14.819Z,-4.50
2022-12-13T11:08:42.217Z,-4.40
2022-12-13T11:11:10.965Z,-4.40
2022-12-13T11:13:45.310Z,-4.30
2022-12-13T11:16:27.766Z,-4.20
2022-12-13T11:18:58.314Z,-4.10
2022-12-13T11:21:28.624Z,-4.10
2022-12-13T11:24:01.980Z,-4.10
2022-12-13T11:26:32.559Z,-4.10
2022-12-13T11:29:12.348Z,-4.00
2022-12-13T11:31:56.230Z,-4.00
2022-12-13T11:34:47.432Z,-4.00
2022-12-13T11:37:32.078Z,-4.00
2022-12-13T11:40:15.490Z,-3.90
2022-12-13T11:42:48.545Z,-3.80
2022-12-13T11:45:24.320Z,-3.80
2022-12-13T11:48:01.612Z,-3.70
2022-12-13T11:50:46.603Z,-3.70
2022-12-13T11:53:23.454Z,-3.70
2022-12-13T11:56:05.822Z,-3.60
2022-12-13T11:59:20.740Z,-3.60
2022-12-13T12:02:21.521Z,-3.50
2022-12-13T12:04:58.344Z,-3.50
2022-12-13T12:08:21.199Z,-3.50
2022-12-13T12:10:45.647Z,-3.50
2022-12-13T12:13:33.285Z,-3.60
2022-12-13T12:16:10.598Z,-3.70
2022-12-13T12:18:37.828Z,-3.80
2022-12-13T12:24:55.023Z,-3.70
2022-12-13T12:27:25.122Z,-3.80
2022-12-13T12:29:58.114Z,-3.60
2022-12-13T12:32:41.232Z,-3.60
2022-12-13T12:35:45.944Z,-3.70
2022-12-13T12:38:44.243Z,-3.70
2022-12-13T12:41:32.954Z,-3.60
2022-12-13T12:44:18.706Z,-3.70
2022-12-13T12:47:36.204Z,-3.70
2022-12-13T12:50:34.098Z,-3.80
2022-12-13T12:53:15.391Z,-3.80
2022-12-13T12:56:03.580Z,-3.90
2022-12-13T12:58:40.085Z,-3.90
2022-12-13T13:01:37.678Z,-3.90
2022-12-13T13:04:14.082Z,-3.90
2022-12-13T13:07:03.903Z,-3.90
2022-12-13T13:09:31.920Z,-3.90
2022-12-13T13:12:29.307Z,-3.90
2022-12-13T13:14:51.211Z,-3.80
2022-12-13T13:17:41.721Z,-3.80
2022-12-13T13:20:23.596Z,-3.80
2022-12-13T13:23:10.354Z,-3.80
2022-12-13T13:26:07.512Z,-3.70
2022-12-13T13:28:30.509Z,-3.70
2022-12-13T13:31:05.303Z,-3.70
2022-12-13T13:33:48.271Z,-3.70
2022-12-13T13:36:41.174Z,-3.80
2022-12-13T13:39:19.586Z,-3.80
2022-12-13T13:41:52.568Z,-3.90
2022-12-13T13:44:50.300Z,-3.80
2022-12-13T13:47:20.592Z,-3.80
2022-12-13T13:50:06.625Z,-3.70
2022-12-13T13:52:57.959Z,-3.70
2022-12-13T13:55:47.502Z,-3.50
2022-12-13T13:58:48.107Z,-3.50
2022-12-13T14:01:33.668Z,-3.50
2022-12-13T14:04:34.035Z,-3.50
2022-12-13T14:07:42.879Z,-3.50
2022-12-13T14:10:26.226Z,-3.60
2022-12-13T14:13:02.574Z,-3.60
2022-12-13T14:15:59.961Z,-3.60
2022-12-13T14:18:41.008Z,-3.50
2022-12-13T14:21:37.377Z,-3.60
2022-12-13T14:24:19.107Z,-3.60
2022-12-13T14:26:56.631Z,-3.60
2022-12-13T14:29:31.382Z,-3.70
2022-12-13T14:31:58.924Z,-3.70
2022-12-13T14:34:30.995Z,-3.70
2022-12-13T14:37:03.915Z,-3.70
2022-12-13T14:39:34.623Z,-3.70
2022-12-13T14:42:21.311Z,-3.80
2022-12-13T14:44:48.509Z,-3.90
2022-12-13T14:47:17.701Z,-3.90
2022-12-13T14:49:50.621Z,-4.00
2022-12-13T14:52:33.433Z,-4.00
2022-12-13T14:55:04.673Z,-4.00
2022-12-13T14:57:35.197Z,-4.10
2022-12-13T15:00:26.497Z,-4.10
2022-12-13T15:02:57.146Z,-4.10
2022-12-13T15:05:28.588Z,-4.10
2022-12-13T15:07:57.160Z,-4.10
2022-12-13T15:10:33.167Z,-4.20
2022-12-13T15:13:00.364Z,-4.30
2022-12-13T15:15:36.696Z,-4.40
2022-12-13T15:18:09.717Z,-4.40
2022-12-13T15:20:41.716Z,-4.40
2022-12-13T15:23:21.156Z,-4.40
2022-12-13T15:26:00.399Z,-4.40
2022-12-13T15:28:31.964Z,-4.50
2022-12-13T15:31:00.631Z,-4.60
2022-12-13T15:33:35.162Z,-4.60
2022-12-13T15:36:11.036Z,-4.70
2022-12-13T15:38:47.447Z,-4.70
2022-12-13T15:41:19.569Z,-4.80
2022-12-13T15:43:51.072Z,-4.70
2022-12-13T15:46:39.451Z,-4.80
2022-12-13T15:49:48.026Z,-4.70
2022-12-13T15:52:15.141Z,-4.80
2022-12-13T15:54:55.208Z,-4.80
2022-12-13T15:57:27.499Z,-4.80
2022-12-13T16:00:16.703Z,-4.80
2022-12-13T16:02:58.378Z,-4.90
2022-12-13T16:05:31.894Z,-4.90
2022-12-13T16:08:14.217Z,-4.90
2022-12-13T16:10:50.136Z,-5.00
2022-12-13T16:13:30.785Z,-4.90
2022-12-13T16:16:09.149Z,-4.90
2022-12-13T16:18:53.639Z,-4.90
2022-12-13T16:21:20.974Z,-4.90
2022-12-13T16:23:49.276Z,-4.80
2022-12-13T16:26:23.002Z,-4.80
2022-12-13T16:28:50.306Z,-4.80
2022-12-13T16:31:23.104Z,-4.80
2022-12-13T16:33:50.611Z,-4.80
2022-12-13T16:36:18.059Z,-4.90
2022-12-13T16:38:45.734Z,-4.90
2022-12-13T16:41:14.583Z,-4.90
2022-12-13T16:43:58.298Z,-4.90
2022-12-13T16:47:16.102Z,-4.90
2022-12-13T16:49:23.665Z,-4.90
2022-12-13T16:51:53.272Z,-4.90
2022-12-13T16:54:22.373Z,-4.90
2022-12-13T16:56:50.574Z,-5.00
2022-12-13T16:59:22.222Z,-5.00
2022-12-13T17:01:50.274Z,-5.00
2022-12-13T17:04:21.619Z,-5.00
2022-12-13T17:06:50.303Z,-5.10
2022-12-13T17:09:18.624Z,-5.10
2022-12-13T17:11:45.940Z,-5.10
2022-12-13T17:14:13.118Z,-5.10
2022-12-13T17:16:40.345Z,-5.10
2022-12-13T17:19:07.534Z,-5.10
2022-12-13T17:21:34.975Z,-5.10
2022-12-13T17:24:03.035Z,-5.20
2022-12-13T17:26:30.335Z,-5.20
2022-12-13T17:28:57.538Z,-5.20
2022-12-13T17:31:28.100Z,-5.20
2022-12-13T17:34:00.641Z,-5.20
2022-12-13T17:36:27.967Z,-5.20
2022-12-13T17:38:55.131Z,-5.20
2022-12-13T17:41:22.962Z,-5.20
2022-12-13T17:43:51.232Z,-5.20
2022-12-13T17:46:19.151Z,-5.20
2022-12-13T17:48:46.685Z,-5.30
2022-12-13T17:51:14.835Z,-5.30
2022-12-13T17:53:44.005Z,-5.30
2022-12-13T17:56:15.173Z,-5.30
2022-12-13T17:58:42.948Z,-5.40
2022-12-13T18:01:22.114Z,-5.40
2022-12-13T18:03:52.499Z,-5.40
2022-12-13T18:06:20.145Z,-5.40
2022-12-13T18:08:47.912Z,-5.40
2022-12-13T18:11:32.782Z,-5.40
2022-12-13T18:14:02.076Z,-5.40
2022-12-13T18:16:36.413Z,-5.40
2022-12-13T18:19:07.535Z,-5.40
2022-12-13T18:21:36.874Z,-5.40
2022-12-13T18:24:06.129Z,-5.40
2022-12-13T18:26:34.317Z,-5.40
2022-12-13T18:29:02.042Z,-5.40
2022-12-13T18:31:29.372Z,-5.40
2022-12-13T18:33:56.839Z,-5.40
2022-12-13T18:36:25.320Z,-5.40
2022-12-13T18:38:52.818Z,-5.50
2022-12-13T18:41:28.036Z,-5.40
2022-12-13T18:44:01.895Z,-5.40
2022-12-13T18:46:31.443Z,-5.50
2022-12-13T18:48:59.317Z,-5.50
2022-12-13T18:51:27.004Z,-5.50
2022-12-13T18:53:54.821Z,-5.50
2022-12-13T18:56:22.750Z,-5.50
2022-12-13T18:58:51.316Z,-5.40
2022-12-13T19:01:20.034Z,-5.60
2022-12-13T19:03:48.574Z,-5.60
2022-12-13T19:06:18.849Z,-5.60
2022-12-13T19:08:51.357Z,-5.60
2022-12-13T19:11:19.126Z,-5.60
2022-12-13T19:13:47.047Z,-5.60
2022-12-13T19:16:17.148Z,-5.60
2022-12-13T19:18:44.727Z,-5.50
2022-12-13T19:21:18.077Z,-5.50
2022-12-13T19:23:50.034Z,-5.50
2022-12-13T19:26:21.535Z,-5.50
2022-12-13T19:28:48.745Z,-5.40
2022-12-13T19:31:16.080Z,-5.50
2022-12-13T19:33:43.714Z,-5.40
2022-12-13T19:36:11.624Z,-5.40
2022-12-13T19:38:40.116Z,-5.40
2022-12-13T19:41:12.367Z,-5.40
2022-12-13T19:43:40.255Z,-5.30
2022-12-13T19:46:08.309Z,-5.30
2022-12-13T19:48:37.893Z,-5.30
2022-12-13T19:51:10.751Z,-5.30
2022-12-13T19:53:39.126Z,-5.30
2022-12-13T19:56:15.186Z,-5.30
2022-12-13T19:58:42.562Z,-5.30
2022-12-13T20:01:11.210Z,-5.30
2022-12-13T20:03:41.386Z,-5.30
2022-12-13T20:06:11.303Z,-5.30
2022-12-13T20:08:38.821Z,-5.30
2022-12-13T20:11:09.535Z,-5.30
2022-12-13T20:13:37.637Z,-5.30
2022-12-13T20:16:06.376Z,-5.40
2022-12-13T20:18:34.974Z,-5.30
2022-12-13T20:21:13.307Z,-5.30
2022-12-13T20:23:49.439Z,-5.30
2022-12-13T20:26:21.089Z,-5.30
2022-12-13T20:28:49.585Z,-5.30
2022-12-13T20:31:22.806Z,-5.30
2022-12-13T20:33:55.842Z,-5.30
2022-12-13T20:36:25.264Z,-5.30
2022-12-13T20:38:56.548Z,-5.30
2022-12-13T20:41:28.906Z,-5.30
2022-12-13T20:43:58.837Z,-5.30
2022-12-13T20:46:30.166Z,-5.30
2022-12-13T20:49:00.443Z,-5.30
2022-12-13T20:51:29.842Z,-5.30
2022-12-13T20:53:57.576Z,-5.30
2022-12-13T20:56:27.825Z,-5.30
2022-12-13T20:58:57.664Z,-5.10
2022-12-13T21:01:27.844Z,-5.30
2022-12-13T21:03:58.480Z,-5.20
2022-12-13T21:06:27.354Z,-5.20
2022-12-13T21:08:55.193Z,-5.20
2022-12-13T21:11:26.844Z,-5.20
2022-12-13T21:14:07.531Z,-5.20
2022-12-13T21:16:42.077Z,-5.20
2022-12-13T21:19:12.038Z,-5.10
2022-12-13T21:21:39.425Z,-5.10
2022-12-13T21:24:07.282Z,-5.10
2022-12-13T21:26:35.974Z,-5.10
2022-12-13T21:29:06.524Z,-5.10
2022-12-13T21:31:35.778Z,-5.10
2022-12-13T21:34:05.166Z,-5.00
2022-12-13T21:36:38.050Z,-5.00
2022-12-13T21:39:16.517Z,-5.00
2022-12-13T21:41:44.349Z,-5.00
2022-12-13T21:44:13.522Z,-5.00
2022-12-13T21:47:10.668Z,-5.00
2022-12-13T21:49:29.033Z,-5.00
2022-12-13T21:51:56.250Z,-4.90
2022-12-13T21:54:23.447Z,-4.90
2022-12-13T21:57:09.118Z,-4.90
2022-12-13T21:59:36.366Z,-4.90
2022-12-13T22:02:16.527Z,-5.00
2022-12-13T22:04:55.890Z,-5.00
2022-12-13T22:07:28.815Z,-4.90
2022-12-13T22:09:56.759Z,-4.90
2022-12-13T22:12:25.184Z,-4.90
2022-12-13T22:14:53.350Z,-4.80
2022-12-13T22:17:31.289Z,-4.90
2022-12-13T22:20:03.715Z,-4.80
2022-12-13T22:22:31.445Z,-4.70
2022-12-13T22:24:58.686Z,-4.70
2022-12-13T22:27:26.327Z,-4.70
2022-12-13T22:29:58.140Z,-4.60
2022-12-13T22:32:27.359Z,-4.60
2022-12-13T22:34:54.808Z,-4.60
2022-12-13T22:37:22.651Z,-4.60
2022-12-13T22:39:50.171Z,-4.70
2022-12-13T22:42:17.386Z,-4.70
2022-12-13T22:44:44.763Z,-4.70
2022-12-13T22:47:11.951Z,-4.60
2022-12-13T22:49:39.884Z,-4.70
2022-12-13T22:52:08.231Z,-4.60
2022-12-13T22:54:35.746Z,-4.60
2022-12-13T22:57:03.163Z,-4.60
2022-12-13T22:59:30.497Z,-4.60
2022-12-13T23:02:02.448Z,-4.50
2022-12-13T23:04:32.883Z,-4.50
2022-12-13T23:07:00.152Z,-4.40
2022-12-13T23:09:27.355Z,-4.30
2022-12-13T23:12:13.424Z,-4.30
2022-12-13T23:14:40.749Z,-4.30
2022-12-13T23:17:08.206Z,-4.40
2022-12-13T23:19:50.520Z,-4.40
2022-12-13T23:22:25.464Z,-4.30
2022-12-13T23:24:53.423Z,-4.40
2022-12-13T23:27:22.499Z,-4.40
2022-12-13T23:29:50.158Z,-4.40
2022-12-13T23:32:17.458Z,-4.40
2022-12-13T23:34:44.764Z,-4.30
2022-12-13T23:37:11.922Z,-4.40
2022-12-13T23:39:39.119Z,-4.30
2022-12-13T23:42:06.421Z,-4.30
2022-12-13T23:44:33.704Z,-4.30
2022-12-13T23:47:00.872Z,-4.30
2022-12-13T23:49:29.053Z,-4.30
2022-12-13T23:51:56.206Z,-4.20
2022-12-13T23:54:23.435Z,-4.20
2022-12-13T23:56:50.745Z,-4.20
2022-12-13T23:59:18.774Z,-4.10
